Messwerte Pescara

Temperatur

Temperatur
°C
1575493200 22.00 22.00 6
1575496800 23.00 23.00 5
1575500400 0.00 0.00 5
1575504000 1.00 1.00 5
1575507600 2.00 2.00 5
1575511200 3.00 3.00 5
1575514800 4.00 4.00 6
1575518400 5.00 5.00 6
1575522000 6.00 6.00 6
1575525600 7.00 7.00 6
1575529200 8.00 8.00 6
1575532800 9.00 9.00 7
1575536400 10.00 10.00 8
1575540000 11.00 11.00 10
1575543600 12.00 12.00 10
1575547200 13.00 13.00
1575550800 14.00 14.00 11
1575554400 15.00 15.00 11
1575558000 16.00 16.00 11
1575561600 17.00 17.00 11
1575565200 18.00 18.00 10
1575568800 19.00 19.00
1575572400 20.00 20.00 9
1575576000 21.00 21.00 8

Aktuellste Messwerte

Wettercharakter
Wetter: wechselnd bewölkt
Temperatur
8 °C
Feuchtigkeit
75 %
Wind
5 km/hWindrichtung: Südwest
Luftdruck
1026 hPa
Messzeit: 5. Dezember 2019, 22.00Datenquelle: METAR

Weitere Messstationen in der Nähe

Messstation Temperatur Entfernung
Monte Terminilo 5 °C 100 km
Frosinone - 116 km
Guidonia - 130 km
Latina - 145 km
Ancona 4 °C 148 km
Rom-Ciampino 8 °C 152 km
Grazzanise 10 °C 154 km

Wind

Windrichtung Böen Mittelwind
° km/h km/h
1575493200 22.00 21.00 - 22.00 220° 5
1575496800 23.00 22.00 - 23.00 210° 5
1575500400 0.00 23.00 - 0.00 220° 5
1575504000 1.00 0.00 - 1.00 230° 5
1575507600 2.00 1.00 - 2.00 230° 5
1575511200 3.00 2.00 - 3.00 240° 5
1575514800 4.00 3.00 - 4.00 220° 5
1575518400 5.00 4.00 - 5.00 230° 5
1575522000 6.00 5.00 - 6.00 220° 5
1575525600 7.00 6.00 - 7.00 220° 5
1575529200 8.00 7.00 - 8.00 230° 5
1575532800 9.00 8.00 - 9.00 240° 10
1575536400 10.00 9.00 - 10.00 240° 10
1575540000 11.00 10.00 - 11.00 200° 5
1575543600 12.00 11.00 - 12.00 200° 5
1575547200 13.00 12.00 - 13.00
1575550800 14.00 13.00 - 14.00 230° 5
1575554400 15.00 14.00 - 15.00 5
1575558000 16.00 15.00 - 16.00 5
1575561600 17.00 16.00 - 17.00 220° 5
1575565200 18.00 17.00 - 18.00 240° 5
1575568800 19.00 18.00 - 19.00
1575572400 20.00 19.00 - 20.00 240° 5
1575576000 21.00 20.00 - 21.00 220° 5

Ihre Wetterstation

Fehlt Ihre Wetterstation auf unserem Portal?

Schreiben Sie an network@meteonews.ch

Klima

Wann ist es am wärmsten? Wann regnet es am wenigsten? Unsere Klimadaten geben Auskunft.